Tiempo atmosférico en la estación meteorológica de Estepona, Málaga (15 m.)



Fecha
DESCASC
Temp. máxima en grados centígrados (hora)
DESCASC
Temp. mínima en grados centígrados (hora)
DESCASC
Temp. media en grados centígrados
DESCASC
Racha de viento máxima en m/sg (hora)
DESCASC
Velocidad máxima media en intervalos de 10 minutos(hora)
DESCASC
Precipitaciones diarias en mm
DESCASC
Precipitaciones de 00:00 a 06:00 en mm
DESCASC
Precipitaciones de 06:00 a 12:00 en mm
DESCASC
Precipitaciones de 12:00 a 18:00 en mm
DESCASC
Precipitaciones de 18:00 a 24:00 en mm
DESCASC
25-04-2019 20.9 (19:10) 14.3 (23:40) 17.6 -- (--) -- (--) 8.6 0.6 8 0 0
24-04-2019 20.3 (17:10) 12.1 (04:10) 16.2 -- (--) -- (--) 0.8 0.4 0 0.2 0.2
23-04-2019 19.9 (16:00) 12.8 (10:10) 16.3 -- (--) -- (--) 3.8 0 3.8 0 0
22-04-2019 25 (15:50) 14.1 (00:00) 19.6 -- (--) -- (--) 0 0 0 0 0
21-04-2019 21.5 (14:40) 12.2 (00:00) 16.8 8.33 (19:40) 5.28 (19:40) 0.4 0 0 0.4 0
20-04-2019 19.8 (13:00) 12.3 (00:00) 16 8.89 (15:10) 6.11 (15:10) 0 0 0 0 0
19-04-2019 22 (15:20) 12.2 (00:00) 17.1 9.17 (16:30) 4.44 (13:30) 0 0 0 0 0
18-04-2019 21.4 (17:40) 12.9 (00:00) 17.1 12.78 (10:10) 6.11 (14:00) 5.6 2.6 3 0 0
17-04-2019 19.3 (14:20) 15.9 (00:00) 17.6 -- (--) -- (--) 0 0 0 0 0
16-04-2019 22.9 (15:20) 12.7 (00:00) 17.8 9.17 (02:00) 5 (00:10) 0 0 0 0 0
15-04-2019 27 (17:10) 14 (00:00) 20.5 -- (--) -- (--) 0 0 0 0 0
14-04-2019 23.3 (19:00) 13.2 (00:00) 18.2 4.17 (20:40) 2.5 (20:10) 0 0 0 0 0
13-04-2019 25.1 (19:10) 12 (00:00) 18.6 -- (--) -- (--) 0 0 0 0 0
12-04-2019 22.8 (13:40) 13.2 (00:00) 18 -- (--) -- (--) 0 0 0 0 0
11-04-2019 24.2 (17:50) 11.7 (00:00) 18 -- (--) -- (--) 0 0 0 0 0
10-04-2019 22.1 (18:10) 11 (00:00) 16.6 13.89 (16:10) 6.67 (14:50) 0 0 0 0 0
09-04-2019 21.2 (17:00) 12.7 (00:00) 17 15 (18:30) 7.22 (14:50) 0 0 0 0 0
08-04-2019 20.2 (17:50) 13.6 (00:00) 16.9 11.94 (16:00) 6.94 (15:10) -- -- -- -- 0
07-04-2019 18.1 (15:20) 11.5 (00:00) 14.8 12.5 (12:50) 6.67 (12:20) -- -- -- -- --
06-04-2019 16.2 (13:00) 9.8 (00:00) 13 13.89 (15:30) 7.5 (12:50) -- -- -- -- --
05-04-2019 17.7 (16:40) 11.4 (00:00) 14.6 16.67 (15:40) 7.5 (18:00) -- 0 -- -- --
04-04-2019 21.7 (14:50) 10.9 (00:00) 16.3 14.44 (17:00) 8.89 (16:50) -- -- -- -- --
03-04-2019 26.3 (17:30) 11.6 (00:00) 18.9 10 (18:10) 5.28 (20:40) -- -- -- -- --
02-04-2019 21.4 (14:30) 11.4 (00:00) 16.4 4.17 (14:30) 2.5 (15:20) -- -- -- -- --
01-04-2019 19.3 (17:20) 13.4 (00:00) 16.3 8.61 (07:10) 4.17 (07:20) -- -- -- -- --
31-03-2019 20.8 (16:50) 13 (00:00) 16.9 9.44 (03:50) 6.39 (04:10) -- -- -- -- --
30-03-2019 16.7 (10:40) 14 (00:00) 15.4 -- (--) -- (--) -- -- -- -- --
29-03-2019 17.3 (15:20) 13.4 (00:00) 15.3 -- (--) -- (--) -- -- -- -- --
28-03-2019 17.2 (13:30) 13.5 (00:00) 15.4 -- (--) -- (--) 0 0 0 0 0
27-03-2019 17.4 (14:40) 14.5 (00:00) 15.9 -- (--) -- (--) 0 0 0 0 0

Gráficas

Temp. máximas Temp. mínimas Temp. medias Precipitaciones Rachas de viento máximas Velocidades máximas media en intervalos de 10 minutos

Datos horarios

Fecha y hora oficial Temperatura (ºC) Velocidad del viento (km/h) Dirección del viento Racha (km/h) Dirección de racha Precipitación (mm) Presión (hPa) Tendencia (hPa) Humedad (%)
2019-04-25 23:00:00 14.8 14 Oeste 23 Sudoeste 0 1020.6 3 63
2019-04-25 22:00:00 16 8 Oeste 27 Oeste 0 1019.4 2.8 56
2019-04-25 21:00:00 17.3 13 Oeste 37 Oeste 0 1018.5 2.2 45
2019-04-25 20:00:00 19.6 18 Oeste -- -- 0 1017.6 1.2 34
2019-04-25 19:00:00 20.8 -- -- -- -- 0 1016.6 0 32
2019-04-25 18:00:00 20.6 -- -- -- -- 0 1016.3 0.1 41
2019-04-25 17:00:00 19.3 -- -- -- -- 0 1016.4 -0.1 55
2019-04-25 16:00:00 18.3 -- -- -- -- 0 1016.6 0.5 60
2019-04-25 15:00:00 18.7 -- -- -- -- 0 1016.2 0.4 57
2019-04-25 14:00:00 17.9 18 Oeste 35 Oeste 0 1016.5 1.2 57
2019-04-25 13:00:00 18.2 17 Oeste 42 Oeste 0 1016.1 1.5 51
2019-04-25 12:00:00 17.9 16 Oeste 35 Oeste 0 1015.8 1.8 58
2019-04-25 11:00:00 15.9 18 Oeste -- -- 0 1015.3 1.8 77
2019-04-25 10:00:00 15.1 15 Sudoeste -- -- 0.2 1014.6 1.7 86
2019-04-25 09:00:00 14.7 -- -- -- -- 1.2 1014 1.1 87
2019-04-25 08:00:00 15.3 13 Sudoeste 24 Sudoeste 4.8 1013.5 0.5 87
2019-04-25 07:00:00 15.4 15 Sudoeste 28 Sudoeste 1.8 1012.9 -0.1 85
2019-04-25 06:00:00 15.6 15 Sudoeste 28 Sudoeste 0.2 1012.9 -0.6 83
2019-04-25 05:00:00 15.9 14 Sudoeste -- -- 0.2 1013 -0.8 81
2019-04-25 04:00:00 15.8 14 Oeste 31 Oeste 0 1013 -1 83
2019-04-25 03:00:00 15.5 9 Sudoeste 22 Sudoeste 0 1013.5 -0.7 84
2019-04-25 02:00:00 15.5 14 Sudoeste 23 Sudoeste 0.2 1013.8 -0.2 82
2019-04-25 01:00:00 15.6 14 Oeste 27 Oeste 0 1014 0.3 81
2019-04-25 00:00:00 15.6 12 Oeste 25 Oeste 0.2 1014.2 1.1 78
2019-04-24 23:00:00 16.5 8 Oeste 19 Sudoeste 0 1014 1.3 69
2019-04-24 22:00:00 16.8 12 Sudoeste 23 Oeste 0 1013.7 1.3 64
2019-04-24 21:00:00 17.3 14 Sudoeste -- -- 0 1013.1 1 58
2019-04-24 20:00:00 17.9 -- -- -- -- 0 1012.7 0.8 53
2019-04-24 19:00:00 18.5 -- -- -- -- 0 1012.4 0.1 52
2019-04-24 18:00:00 19 -- -- -- -- 0 1012.1 -0.6 51
2019-04-24 17:00:00 19.8 -- -- -- -- 0 1011.9 -0.7 48
2019-04-24 16:00:00 18.1 -- -- -- -- 0 1012.3 -0.3 53
2019-04-24 15:00:00 16.6 15 Oeste -- -- 0 1012.7 0.1 61
2019-04-24 14:00:00 16.2 -- -- -- -- 0.2 1012.6 0.4 66
2019-04-24 13:00:00 16.7 15 Sudoeste 31 Sudoeste 0 1012.6 0.9 64
2019-04-24 12:00:00 15.8 17 Oeste 31 Oeste 0 1012.6 1.6 67
2019-04-24 11:00:00 15.7 14 Oeste 24 Sudoeste 0 1012.2 2.1 71
2019-04-24 10:00:00 14.2 10 Sudoeste 19 Oeste 0 1011.7 2.5 71
2019-04-24 09:00:00 13.7 8 Sudoeste 19 Sudoeste 0 1011 2 73
2019-04-24 08:00:00 12.9 7 Sudoeste 28 Oeste 0 1010.1 1.1 71
2019-04-24 07:00:00 12.8 10 Oeste 22 Noroeste 0 1009.2 0.6 72
2019-04-24 06:00:00 12.5 13 Oeste 23 Sudoeste 0 1009 0.2 74
2019-04-24 05:00:00 12.5 12 Oeste 24 Oeste 0 1009 0.2 71
2019-04-24 04:00:00 12.2 11 Oeste 33 Oeste 0.4 1008.6 -0.4 73
2019-04-24 03:00:00 12.3 8 Sudoeste 19 Oeste 0 1008.8 0.2 69
2019-04-24 02:00:00 12.7 8 Sudoeste 16 Oeste 0 1008.8 0.7 66
2019-04-24 01:00:00 13.3 11 Oeste 19 Sudoeste 0 1009 1.7 65
2019-04-24 00:00:00 13.5 11 Sudoeste 19 Oeste 0 1008.6 2.6 59
2019-04-23 23:00:00 13.9 10 Oeste 25 Sudoeste 0 1008.1 2.9 56
2019-04-23 22:00:00 14.2 8 Oeste 30 Oeste 0 1007.3 2.5 53
2019-04-23 21:00:00 15.2 13 Oeste -- -- 0 1006 1.9 44
2019-04-23 20:00:00 16.9 -- -- -- -- 0 1005.2 1.5 37
2019-04-23 19:00:00 18 -- -- -- -- 0 1004.8 1.4 33
2019-04-23 18:00:00 18.1 -- -- -- -- 0 1004.1 0.7 34
2019-04-23 17:00:00 19.5 -- -- -- -- 0 1003.7 0.4 28
2019-04-23 16:00:00 19.8 -- -- -- -- 0 1003.4 0 31
2019-04-23 15:00:00 17.6 17 Oeste -- -- 0 1003.4 0.5 33
2019-04-23 14:00:00 18.9 18 Oeste 44 Oeste 0 1003.3 1.5 33
2019-04-23 13:00:00 17.2 14 Oeste -- -- 0 1003.4 2.3 37
2019-04-23 12:00:00 16.5 16 Oeste 35 Oeste 0 1002.9 3 42
2019-04-23 11:00:00 13.8 6 Norte -- -- 0.4 1001.8 1.5 58
2019-04-23 10:00:00 13.2 19 Oeste 35 Oeste 0.4 1001.1 1.2 67
2019-04-23 09:00:00 14 15 Oeste 35 Sudoeste 1.8 999.9 -0.4 77
2019-04-23 08:00:00 14.7 10 Oeste 29 Oeste 1.2 1000.3 -0.8 77
2019-04-23 07:00:00 15.6 19 Oeste 34 Oeste 0 999.9 -1 68
2019-04-23 06:00:00 15.9 5 Sudoeste 19 Sudoeste 0 1000.3 -1.7 65
2019-04-23 05:00:00 16.3 11 Oeste 33 Oeste 0 1001.1 -1.5 63
2019-04-23 04:00:00 16.5 15 Oeste 37 Sudoeste 0 1000.9 -2.2 63
2019-04-23 03:00:00 16.7 10 Oeste 28 Oeste 0 1002 -1.4 63
2019-04-23 02:00:00 16.4 14 Oeste 30 Sudoeste 0 1002.6 -1.2 65
2019-04-23 01:00:00 16.7 12 Oeste 27 Oeste 0 1003.1 -0.1 63
2019-04-23 00:00:00 17 11 Oeste 27 Oeste 0 1003.4 0.4 63
2019-04-22 23:00:00 17 13 Oeste 31 Oeste 0 1003.8 1.1 64
2019-04-22 22:00:00 17.4 11 Oeste 30 Oeste 0 1003.2 0.9 62
2019-04-22 21:00:00 18.4 16 Oeste 33 Sudoeste 0 1003 1.2 56
2019-04-22 20:00:00 19.8 -- -- -- -- 0 1002.7 1.2 52
2019-04-22 19:00:00 21.8 -- -- -- -- 0 1002.3 0.1 47
2019-04-22 18:00:00 23 -- -- -- -- 0 1001.8 -0.8 43
2019-04-22 17:00:00 24.3 -- -- -- -- 0 1001.5 -1.8 37
2019-04-22 16:00:00 23.8 -- -- -- -- 0 1002.2 -1.9 36
2019-04-22 15:00:00 24.6 -- -- -- -- 0 1002.6 -1.7 33
2019-04-22 14:00:00 23 22 Oeste -- -- 0 1003.3 -1 36
2019-04-22 13:00:00 21.7 19 Oeste -- -- 0 1004.1 0 38
2019-04-22 12:00:00 21.2 17 Oeste 35 Sudoeste 0 1004.3 0.5 39
2019-04-22 11:00:00 17.8 7 Oeste 24 Sudoeste 0 1004.3 0.8 47
2019-04-22 10:00:00 17 10 Sudoeste 21 Oeste 0 1004.1 1 54
2019-04-22 09:00:00 16.4 9 Oeste 24 Oeste 0 1003.8 0.7 50
2019-04-22 08:00:00 15.7 9 Oeste 24 Oeste 0 1003.5 -0.2 50
2019-04-22 07:00:00 15.5 5 Nordeste 19 Nordeste 0 1003.1 -0.6 51
2019-04-22 06:00:00 15.6 10 Oeste 25 Oeste 0 1003.1 -1.1 51
2019-04-22 05:00:00 14.4 5 Oeste 11 Norte 0 1003.7 -1.1 60
2019-04-22 04:00:00 14.2 3 Norte 9 Nordeste 0 1003.7 -1.8 63
2019-04-22 03:00:00 14.5 4 Oeste 12 Sur 0 1004.2 -1.8 62
2019-04-22 02:00:00 14.8 3 Norte 11 Oeste 0 1004.8 -1.4 62
2019-04-22 01:00:00 14.1 3 Noroeste 9 Norte 0 1005.5 -0.3 72
2019-04-22 00:00:00 14.9 2 Norte 8 Oeste 0 1006 0.4 75
2019-04-21 23:00:00 15.2 5 Oeste 10 Oeste 0 1006.2 0.8 75
2019-04-21 22:00:00 15.3 4 Sur 11 Este 0 1005.8 0.6 77
2019-04-21 21:00:00 15.8 7 Este 20 Nordeste 0 1005.6 0.7 78
2019-04-21 20:00:00 16 13 Nordeste 30 Este 0 1005.4 0.2 76
2019-04-21 19:00:00 17.8 13 Este 21 Este 0 1005.2 -0.2 68
2019-04-21 18:00:00 19 9 Este 16 Este 0 1004.9 -0.7 55
2019-04-21 17:00:00 19.4 6 Nordeste 15 Oeste 0.2 1005.2 -1 60
2019-04-21 16:00:00 18.7 8 Oeste 17 Oeste 0.2 1005.4 -1.5 66
2019-04-21 15:00:00 20.5 4 Sudoeste 18 Sudoeste 0 1005.6 -1.7 57
2019-04-21 14:00:00 20.2 10 Sudoeste 18 Sur 0 1006.2 -1 59
2019-04-21 13:00:00 18.4 3 Sur 6 Sudeste 0 1006.9 -0.4 56
2019-04-21 12:00:00 16.9 3 Este 9 Sudeste 0 1007.3 -0.2 62
2019-04-21 11:00:00 16.2 3 Este 10 Este 0 1007.2 -0.5 61
2019-04-21 10:00:00 15.7 5 Este 10 Este 0 1007.3 -0.3 63
2019-04-21 09:00:00 14 3 Este 5 Este 0 1007.5 -0.9 71
2019-04-21 08:00:00 12.3 0 Calma 8 Nordeste 0 1007.7 -1.2 71
2019-04-21 07:00:00 12.9 3 Noroeste 8 Noroeste 0 1007.6 -1.7 71
2019-04-21 06:00:00 13.9 5 Oeste 13 Noroeste 0 1008.4 -2 67
2019-04-21 05:00:00 13.5 5 Oeste 10 Oeste 0 1008.9 -2.1 71
2019-04-21 04:00:00 13.6 2 Noroeste 7 Norte 0 1009.3 -2.3 71
2019-04-21 03:00:00 14.2 4 Este 7 Nordeste 0 1010.4 -1.8 71
2019-04-21 02:00:00 14.9 4 Nordeste 12 Este 0 1011 -1.2 71
2019-04-21 01:00:00 15.2 4 Nordeste 12 Norte 0 1011.6 -0.3 71
2019-04-21 00:00:00 15.4 5 Nordeste 14 Nordeste 0 1012.2 1 72
2019-04-20 23:00:00 15.6 7 Nordeste 17 Nordeste 0 1012.2 1.7 72
2019-04-20 22:00:00 16 12 Este 23 Este 0 1011.9 1.9 72
2019-04-20 21:00:00 16.3 10 Este 22 Este 0 1011.2 1.6 68
2019-04-20 20:00:00 17.2 11 Este 17 Este 0 1010.5 0.7 64
2019-04-20 19:00:00 18.6 8 Este 17 Este 0 1010 -0.1 60
2019-04-20 18:00:00 18.1 6 Sudeste 12 Este 0 1009.6 -0.3 62
2019-04-20 17:00:00 17.9 8 Este 23 Este 0 1009.8 0.2 64
2019-04-20 16:00:00 17.8 17 Este -- -- 0 1010.1 0.4 61
2019-04-20 15:00:00 18.8 17 Este 25 Este 0 1009.9 0.1 57
2019-04-20 14:00:00 19.6 6 Sudeste 16 Sudeste 0 1009.6 -0.4 50
2019-04-20 13:00:00 19.7 10 Sudeste 18 Este 0 1009.7 -0.5 50
2019-04-20 12:00:00 18.7 6 Este 10 Este 0 1009.8 -0.7 52
2019-04-20 11:00:00 16.4 6 Este 10 Este 0 1010 -0.3 57
2019-04-20 10:00:00 14.7 3 Este 10 Este 0 1010.2 0.1 64
2019-04-20 09:00:00 12.9 4 Oeste 13 Sudoeste 0 1010.5 -0.4 69
2019-04-20 08:00:00 12.4 3 Este 11 Oeste 0 1010.3 -0.8 69
2019-04-20 07:00:00 12.7 7 Oeste 10 Oeste 0 1010.1 -2.3 71
2019-04-20 06:00:00 12.6 4 Nordeste 8 Nordeste 0 1010.9 -2.2 68
2019-04-20 05:00:00 13.7 5 Oeste 9 Oeste 0 1011.1 -2.2 69
2019-04-20 04:00:00 13.6 2 Nordeste 11 Nordeste 0 1012.4 -1.4 69
2019-04-20 03:00:00 14 6 Nordeste 15 Nordeste 0 1013.1 -1.1 68
2019-04-20 02:00:00 12.9 2 Noroeste 10 Este 0 1013.3 -1.2 70
2019-04-20 01:00:00 13.6 2 Nordeste 6 Norte 0 1013.8 -0.4 69
2019-04-20 00:00:00 14.4 3 Sur 7 Este 0 1014.2 0.4 72
2019-04-19 23:00:00 15.3 2 Norte 8 Nordeste 0 1014.5 1.4 70
2019-04-19 22:00:00 16.2 4 Nordeste 9 Este 0 1014.2 1.4 69
2019-04-19 21:00:00 17 5 Sudoeste 15 Sudoeste 0 1013.8 1.4 62
2019-04-19 20:00:00 17.9 14 Sudoeste 22 Sudoeste 0 1013.1 0.8 64
2019-04-19 19:00:00 20.7 6 Sudoeste 17 Sudoeste 0 1012.8 -0.3 47
2019-04-19 18:00:00 19.4 10 Sudoeste 23 Oeste 0 1012.4 -1 50
2019-04-19 17:00:00 18.9 13 Sudoeste 33 Sudoeste 0 1012.3 -1.6 51
2019-04-19 16:00:00 21.1 13 Oeste 23 Oeste 0 1013.1 -0.8 37
2019-04-19 15:00:00 21.8 7 Sudoeste 15 Oeste 0 1013.4 -0.4 42
2019-04-19 14:00:00 19.8 7 Sur 24 Este 0 1013.9 0.4 50
2019-04-19 13:00:00 19.8 13 Este 19 Este 0 1013.9 0.8 54
2019-04-19 12:00:00 19.8 6 Este 11 Sudeste 0 1013.8 0.7 48
2019-04-19 11:00:00 17.3 7 Este 17 Este 0 1013.5 0.5 59
2019-04-19 10:00:00 15.7 4 Sudeste 8 Este 0 1013.1 0.4 61
2019-04-19 09:00:00 13.5 3 Sur 8 Sudoeste 0 1013.1 0.3 64
2019-04-19 08:00:00 12.2 4 Oeste 7 Noroeste 0 1013 -0.1 64
2019-04-19 07:00:00 12.7 3 Norte 8 Noroeste 0 1012.7 -0.7 61
2019-04-19 06:00:00 13.2 4 Noroeste 7 Oeste 0 1012.8 -0.9 62
2019-04-19 05:00:00 12.8 3 Nordeste 8 Nordeste 0 1013.1 -0.7 65
2019-04-19 04:00:00 12.5 3 Sur 10 Este 0 1013.4 -0.4 64
2019-04-19 03:00:00 12.6 3 Noroeste 6 Nordeste 0 1013.7 0.3 64
2019-04-19 02:00:00 13 3 Noroeste 11 Sudoeste 0 1013.8 0.7 62
2019-04-19 01:00:00 13.6 3 Nordeste 14 Oeste 0 1013.8 0.7 59
2019-04-19 00:00:00 14.2 3 Sudoeste 17 Sudoeste 0 1013.4 0.8 56
2019-04-18 23:00:00 15.5 12 Oeste 23 Oeste 0 1013.1 1.1 49
2019-04-18 22:00:00 15.8 6 Noroeste 25 Noroeste 0 1013.1 1.4 52
2019-04-18 21:00:00 16.7 10 Oeste 28 Noroeste 0 1012.6 1.3 49
2019-04-18 20:00:00 18.9 11 Oeste 33 Oeste 0 1012 0.6 44
2019-04-18 19:00:00 19.8 14 Oeste 36 Sudoeste 0 1011.7 0 41
2019-04-18 18:00:00 19.9 19 Oeste 41 Oeste 0 1011.3 -0.7 40
2019-04-18 17:00:00 20.9 18 Oeste 39 Sudoeste 0 1011.4 -0.8 38
2019-04-18 16:00:00 19.5 17 Oeste 31 Oeste 0 1011.7 -1.1 48
2019-04-18 15:00:00 18.2 15 Sur 34 Sudoeste 0 1012 -1.2 69
2019-04-18 14:00:00 18.3 22 Sudoeste 37 Sudoeste 0 1012.2 -1 68
2019-04-18 13:00:00 18.8 12 Sudoeste 22 Sur 0 1012.8 -0.5 65
2019-04-18 12:00:00 15.6 9 Sudoeste 15 Sudoeste 0 1013.2 0.7 78
2019-04-18 11:00:00 13 4 Nordeste 46 Oeste 2.8 1013.2 0.8 78
2019-04-18 10:00:00 13.8 18 Oeste 38 Oeste 0.2 1013.3 1.2 81
2019-04-18 09:00:00 14 2 Sudoeste 9 Oeste 0 1012.5 0.7 85
2019-04-18 08:00:00 13.9 5 Oeste 14 Sudoeste 0 1012.4 0.4 85
2019-04-18 07:00:00 13.6 6 Sudoeste 11 Sur 0 1012.1 -0.4 83
2019-04-18 06:00:00 14 0 Calma 12 Oeste 1.8 1011.8 -1.2 82
2019-04-18 05:00:00 14.1 4 Sudeste 10 Sur 0.2 1012 -1.5 79
2019-04-18 04:00:00 14.4 4 Oeste 18 Oeste 0.6 1012.5 -0.9 76
2019-04-18 03:00:00 15.3 5 Oeste 15 Oeste 0 1013 -0.4 71
2019-04-18 02:00:00 15.8 7 Oeste 11 Oeste 0 1013.5 0.1 77
2019-04-18 01:00:00 16.2 0 Calma 17 Nordeste 0 1013.4 0.3 77
2019-04-18 00:00:00 16.4 7 Este 20 Este 0 1013.4 0.6 72
2019-04-17 23:00:00 16.8 7 Este 18 Oeste 0 1013.4 0.8 67
2019-04-17 22:00:00 16.8 8 Oeste 31 Oeste 0 1013.1 0.9 63
2019-04-17 21:00:00 16.5 12 Sudoeste 20 Sudoeste 0 1012.8 1.4 76
2019-04-17 20:00:00 16.8 8 Sudoeste 14 Sudoeste 0 1012.6 1.2 72
2019-04-17 19:00:00 17.2 4 Sudoeste 11 Oeste 0 1012.2 0.1 72
2019-04-17 18:00:00 17.5 8 Sudeste 19 Este 0 1011.4 -1.1 71
2019-04-17 17:00:00 17.6 16 Este 29 Este 0 1011.4 -1.4 65
2019-04-17 16:00:00 18.1 15 Este 25 Este 0 1012.1 -1.2 65
2019-04-17 15:00:00 17.4 15 Este 34 Nordeste 0 1012.5 -1.5 69
2019-04-17 14:00:00 18.9 23 Este 37 Nordeste 0 1012.8 -1.2 65
2019-04-17 13:00:00 18.1 23 Este -- -- 0 1013.3 -0.7 69
2019-04-17 12:00:00 17.3 -- -- -- -- 0 1014 0.1 73
2019-04-17 11:00:00 16.9 -- -- -- -- 0 1014 0 73
2019-04-17 10:00:00 16.8 -- -- -- -- 0 1014 0.5 71
2019-04-17 09:00:00 16.6 10 Nordeste 28 Nordeste 0 1013.9 0.2 65
2019-04-17 08:00:00 16 9 Nordeste 25 Este 0 1014 -0.2 62
2019-04-17 07:00:00 16.3 12 Nordeste 40 Nordeste 0 1013.5 -0.8 57
2019-04-17 06:00:00 16.1 12 Nordeste 31 Nordeste 0 1013.7 -1.2 58
2019-04-17 05:00:00 16.4 10 Nordeste 32 Nordeste 0 1014.2 -1.4 56
2019-04-17 04:00:00 16.7 13 Nordeste 31 Nordeste 0 1014.3 -1.2 53
2019-04-17 03:00:00 16.4 12 Nordeste 27 Nordeste 0 1014.9 -0.5 60
2019-04-17 02:00:00 16.5 11 Nordeste 27 Nordeste 0 1015.6 0.3 59
2019-04-17 01:00:00 16.8 11 Nordeste 29 Nordeste 0 1015.5 0.6 56
2019-04-17 00:00:00 16.3 9 Nordeste 23 Nordeste 0 1015.4 1.2 65
2019-04-16 23:00:00 16.3 10 Nordeste 21 Este 0 1015.3 1.3 69
2019-04-16 22:00:00 16.4 12 Este 23 Este 0 1014.9 0.7 74
2019-04-16 21:00:00 17.2 8 Nordeste 21 Este 0 1014.2 -0.1 73
2019-04-16 20:00:00 19 15 Este 23 Este 0 1014 -0.7 63
2019-04-16 19:00:00 20.2 12 Este 18 Este 0 1014.2 -1.1 55
2019-04-16 18:00:00 21.1 8 Este 13 Este 0 1014.3 -1.4 53
2019-04-16 17:00:00 21.5 7 Este 13 Sudeste 0 1014.7 -1.5 55
2019-04-16 16:00:00 21.6 6 Sudeste 10 Sudeste 0 1015.3 -1.4 51
2019-04-16 15:00:00 22.4 5 Sudoeste 11 Sudoeste 0 1015.7 -1.2 47
2019-04-16 14:00:00 21.8 6 Sudoeste 10 Sudoeste 0 1016.2 -0.5 54
2019-04-16 13:00:00 21.8 6 Sudoeste 11 Sur 0 1016.7 0.1 53
2019-04-16 12:00:00 21.3 4 Sur 13 Sur 0 1016.9 0.4 45
2019-04-16 11:00:00 19.1 4 Este 8 Sudeste 0 1016.7 0.5 56
2019-04-16 10:00:00 16.1 3 Sudoeste 7 Sudeste 0 1016.6 0.3 68
2019-04-16 09:00:00 14 2 Sudoeste 8 Sudoeste 0 1016.5 0.3 73
2019-04-16 08:00:00 12.9 3 Sudoeste 11 Noroeste 0 1016.2 -0.4 71
2019-04-16 07:00:00 13.1 0 Calma 9 Oeste 0 1016.3 -0.8 70
2019-04-16 06:00:00 13.8 4 Oeste 22 Oeste 0 1016.2 -1.4 70
2019-04-16 05:00:00 14.6 14 Oeste 28 Oeste 0 1016.6 -1.2 70
2019-04-16 04:00:00 15 18 Oeste 31 Oeste 0 1017.1 -0.7 68
2019-04-16 03:00:00 15.1 17 Sudoeste 27 Oeste 0 1017.6 0.1 68
2019-04-16 02:00:00 15.6 18 Oeste -- -- 0 1017.8 0.6 62
2019-04-16 01:00:00 15.8 14 Oeste 32 Sudoeste 0 1017.8 1.5 60
2019-04-16 00:00:00 17 18 Oeste -- -- 0 1017.5 2.1 59
2019-04-15 23:00:00 17.5 19 Sudoeste 39 Oeste 0 1017.2 3.1 63
2019-04-15 22:00:00 18.4 22 Sudoeste 36 Sudoeste 0 1016.3 2.8 60
2019-04-15 21:00:00 19.8 19 Oeste 41 Oeste 0 1015.4 2.4 53
2019-04-15 20:00:00 22.2 22 Oeste -- -- 0 1014.1 1.6 38
2019-04-15 19:00:00 23.9 -- -- -- -- 0 1013.5 0.4 32
2019-04-15 18:00:00 25.8 -- -- -- -- 0 1013 -0.4 24
2019-04-15 17:00:00 26.8 -- -- -- -- 0 1012.5 -0.9 27
2019-04-15 16:00:00 23.2 7 Este 14 Sudeste 0 1013.1 -0.7 46
2019-04-15 15:00:00 23.1 4 Sudoeste 10 Sur 0 1013.4 -0.7 43
2019-04-15 14:00:00 22.2 4 Este 10 Nordeste 0 1013.4 -0.2 52
2019-04-15 13:00:00 21.8 5 Este 9 Sur 0 1013.8 0.4 50
2019-04-15 12:00:00 21.3 4 Sudoeste 9 Sudoeste 0 1014.1 0.6 52
2019-04-15 11:00:00 19.4 3 Sudoeste 6 Sudoeste 0 1013.6 0.4 53
2019-04-15 10:00:00 17.5 2 Sudoeste 6 Sudoeste 0 1013.4 0.7 61
2019-04-15 09:00:00 16 2 Sudoeste 6 Norte 0 1013.5 1.6 62
2019-04-15 08:00:00 14.4 2 Noroeste 5 Norte 0 1013.2 0.9 64
2019-04-15 07:00:00 14.3 3 Noroeste 5 Oeste 0 1012.7 -0.1 62
2019-04-15 06:00:00 14.3 2 Norte 5 Norte 0 1011.9 -1.8 62
2019-04-15 05:00:00 14.6 2 Nordeste 6 Nordeste 0 1012.3 -1.9 59
2019-04-15 04:00:00 15 2 Norte 4 Nordeste 0 1012.8 -2 59
2019-04-15 03:00:00 15.8 4 Sudoeste 5 Oeste 0 1013.7 -1.2 64
2019-04-15 02:00:00 16.8 2 Oeste 5 Nordeste 0 1014.2 -0.7 58
2019-04-15 01:00:00 16.9 2 Noroeste 6 Este 0 1014.8 0 58
2019-04-15 00:00:00 17.7 2 Nordeste 4 Nordeste 0 1014.9 0.5 51
2019-04-14 23:00:00 17.8 0 Calma 12 Oeste 0 1014.9 0.3 59
2019-04-14 22:00:00 18.3 8 Oeste 12 Sudoeste 0 1014.8 0.1 54
2019-04-14 21:00:00 19.2 4 Sudoeste 15 Oeste 0 1014.4 -0.3 53
2019-04-14 20:00:00 20.5 8 Oeste 14 Oeste 0 1014.6 -0.7 46
2019-04-14 19:00:00 23.2 7 Sudoeste 12 Oeste 0 1014.7 -1.3 37
2019-04-14 18:00:00 22.5 4 Sur 8 Sur 0 1014.7 -1.8 43
2019-04-14 17:00:00 22.3 4 Sudeste 10 Sudeste 0 1015.3 -1.6 48
2019-04-14 16:00:00 22.3 5 Este 11 Este 0 1016 -1.4 51
2019-04-14 15:00:00 21.8 6 Este 12 Este 0 1016.5 -0.9 55
2019-04-14 14:00:00 21.8 6 Este 10 Este 0 1016.9 -0.7 52
2019-04-14 13:00:00 21.1 4 Sudeste 10 Sudeste 0 1017.4 0.1 49
2019-04-14 12:00:00 20.8 3 Sudeste 8 Sudeste 0 1017.4 0.1 42
2019-04-14 11:00:00 19.3 4 Sudoeste 8 Sudoeste 0 1017.6 0.8 45
2019-04-14 10:00:00 17.2 3 Sudoeste 6 Sudoeste 0 1017.3 0.7 53
2019-04-14 09:00:00 14.8 0 Calma 7 Norte 0 1017.3 0.8 61
2019-04-14 08:00:00 13.2 0 Calma 7 Nordeste 0 1016.8 0.1 62
2019-04-14 07:00:00 13.3 4 Nordeste 6 Noroeste 0 1016.6 -0.2 63
2019-04-14 06:00:00 13.7 2 Nordeste 5 Noroeste 0 1016.5 -0.9 65
2019-04-14 05:00:00 14.3 4 Sudoeste 7 Nordeste 0 1016.7 -1.1 62
2019-04-14 04:00:00 14.2 2 Sudoeste 5 Noroeste 0 1016.8 -1.6 66
2019-04-14 03:00:00 14.8 4 Norte 6 Nordeste 0 1017.4 -1.3 67
2019-04-14 02:00:00 14.9 4 Nordeste 12 Este 0 1017.8 -0.8 58
2019-04-14 01:00:00 15.6 2 Oeste 6 Noroeste 0 1018.4 0.5 63
2019-04-14 00:00:00 16.7 5 Oeste 7 Noroeste 0 1018.7 1.4 60
2019-04-13 23:00:00 17.3 3 Norte 7 Nordeste 0 1018.6 2.1 55
2019-04-13 22:00:00 19.5 4 Nordeste 28 Sudoeste 0 1017.9 1.5 41
2019-04-13 21:00:00 20.9 14 Oeste 37 Oeste 0 1017.3 1 37
2019-04-13 20:00:00 23.6 14 Oeste -- -- 0 1016.5 -0.6 33
2019-04-13 19:00:00 25 -- -- -- -- 0 1016.4 -1.1 30
2019-04-13 18:00:00 22.9 3 Sur 23 Oeste 0 1016.3 -1.5 46
2019-04-13 17:00:00 22 6 Oeste -- -- 0 1017.1 -0.7 51
2019-04-13 16:00:00 22 10 Oeste 19 Sur 0 1017.5 -0.8 54
2019-04-13 15:00:00 22.3 9 Sudoeste 25 Sudoeste 0 1017.8 -1 53
2019-04-13 14:00:00 21.8 10 Sur 25 Sur 0 1017.8 -0.8 52
2019-04-13 13:00:00 21 13 Sudoeste -- -- 0 1018.3 -0.3 51
2019-04-13 12:00:00 20.1 3 Sur 7 Este 0 1018.8 0.9 48
2019-04-13 11:00:00 18.5 4 Sudoeste 7 Sur 0 1018.6 1 52
2019-04-13 10:00:00 17.5 2 Este 6 Este 0 1018.6 1.5 41
2019-04-13 09:00:00 13.5 0 Calma 5 Este 0 1017.9 1.3 52
2019-04-13 08:00:00 12.3 2 Noroeste 5 Oeste 0 1017.6 1 55
2019-04-13 07:00:00 12.2 2 Oeste 4 Oeste 0 1017.1 0.3 60
2019-04-13 06:00:00 12.6 0 Calma 3 Noroeste 0 1016.6 -0.5 60
2019-04-13 05:00:00 13.2 3 Oeste 4 Oeste 0 1016.6 -1 60
2019-04-13 04:00:00 14 2 Noroeste 5 Norte 0 1016.8 -0.7 49
2019-04-13 03:00:00 15 4 Norte 6 Norte 0 1017.1 -0.1 46
2019-04-13 02:00:00 14.2 3 Noroeste 6 Nordeste 0 1017.6 0.9 52
2019-04-13 01:00:00 14.8 4 Oeste 8 Nordeste 0 1017.5 1.5 52
2019-04-13 00:00:00 15.9 2 Sudoeste 9 Oeste 0 1017.2 1.9 63
2019-04-12 23:00:00 17 3 Oeste 11 Oeste 0 1016.7 1.8 51
2019-04-12 22:00:00 16.8 2 Oeste 8 Sudoeste 0 1016 1.1 64
2019-04-12 21:00:00 17.9 3 Sur 14 Sudoeste 0 1015.3 0.1 65
2019-04-12 20:00:00 20.2 4 Nordeste 12 Nordeste 0 1014.9 -0.7 61
2019-04-12 19:00:00 20 7 Este 13 Este 0 1014.9 -1.3 61
2019-04-12 18:00:00 21.2 5 Este 9 Este 0 1015.2 -1.5 55
2019-04-12 17:00:00 22 6 Sudoeste 15 Sur 0 1015.6 -1.4 53
2019-04-12 16:00:00 22.2 7 Sudoeste -- -- 0 1016.2 -1 51
2019-04-12 15:00:00 21 -- -- -- -- 0 1016.7 -0.7 55
2019-04-12 14:00:00 22.3 6 Sudoeste 15 Sudoeste 0 1017 -0.1 51
2019-04-12 13:00:00 21.5 4 Sur 12 Sudeste 0 1017.2 0.5 53
2019-04-12 12:00:00 20.4 4 Sudoeste 9 Sudoeste 0 1017.4 0.8 39
2019-04-12 11:00:00 17.8 2 Sudoeste 7 Este 0 1017.1 0.9 50
2019-04-12 10:00:00 16.8 2 Sur 8 Este 0 1016.7 0.8 58
2019-04-12 09:00:00 13.9 3 Este 9 Nordeste 0 1016.6 0.8 55
2019-04-12 08:00:00 13.5 5 Norte 10 Este 0 1016.2 0.3 55
2019-04-12 07:00:00 14.3 4 Noroeste 9 Norte 0 1015.9 -0.2 52
2019-04-12 06:00:00 13.9 3 Noroeste 6 Nordeste 0 1015.8 -0.7 57
2019-04-12 05:00:00 14.6 4 Noroeste 8 Norte 0 1015.9 -1 52
2019-04-12 04:00:00 14.7 3 Norte 9 Norte 0 1016.1 -1 52
2019-04-12 03:00:00 14.6 4 Nordeste 9 Este 0 1016.5 -0.6 52
2019-04-12 02:00:00 14.7 3 Este 10 Nordeste 0 1016.9 -0.2 51
2019-04-12 01:00:00 15.9 5 Norte -- -- 0 1017.1 0.6 50
2019-04-12 00:00:00 16.3 -- -- -- -- 0 1017.1 1.3 50
2019-04-11 23:00:00 16.5 -- -- -- -- 0 1017.1 2 49
2019-04-11 22:00:00 17.6 13 Oeste 24 Oeste 0 1016.5 1.7 44
2019-04-11 21:00:00 19.7 4 Oeste 18 Nordeste 0 1015.8 1 28
2019-04-11 20:00:00 22 5 Nordeste -- -- 0 1015.1 0.4 21
2019-04-11 19:00:00 23.5 -- -- -- -- 0 1014.8 -0.5 22
2019-04-11 18:00:00 23.7 -- -- -- -- 0 1014.8 -0.7 26
2019-04-11 17:00:00 23.3 12 Oeste 27 Oeste 0 1014.7 -1.4 27
2019-04-11 16:00:00 23.3 16 Oeste -- -- 0 1015.3 -1.3 25
2019-04-11 15:00:00 23 -- -- -- -- 0 1015.5 -1.5 27
2019-04-11 14:00:00 21.4 -- -- -- -- 0 1016.1 -1 37
2019-04-11 13:00:00 21.1 -- -- -- -- 0 1016.6 -0.4 35
2019-04-11 12:00:00 19.9 -- -- -- -- 0 1017 0.1 37
2019-04-11 11:00:00 18.2 3 Sur 7 Sur 0 1017.1 0.5 47
2019-04-11 10:00:00 15.2 2 Sudoeste 9 Nordeste 0 1017 0.8 56
2019-04-11 09:00:00 13.3 2 Sudoeste 8 Norte 0 1016.9 0.5 61
2019-04-11 08:00:00 13 5 Noroeste 9 Noroeste 0 1016.6 0.2 55
2019-04-11 07:00:00 12.1 3 Noroeste 7 Noroeste 0 1016.2 -0.3 59
2019-04-11 06:00:00 11.9 2 Norte 8 Noroeste 0 1016.4 -0.5 59
2019-04-11 05:00:00 12.2 3 Noroeste 8 Oeste 0 1016.4 -0.7 63
2019-04-11 04:00:00 12.2 3 Oeste 7 Sur 0 1016.5 -0.7 66
2019-04-11 03:00:00 13.2 2 Sudeste 15 Oeste 0 1016.9 -0.2 64
2019-04-11 02:00:00 14 10 Sudoeste 19 Sudoeste 0 1017.1 -0.1 68
2019-04-11 01:00:00 14.2 6 Oeste 22 Oeste 0 1017.2 0.3 63
2019-04-11 00:00:00 15.4 5 Oeste 34 Oeste 0 1017.1 1.4 60
2019-04-10 23:00:00 15.9 17 Oeste 27 Sudoeste 0 1017.2 2 62
2019-04-10 22:00:00 16.3 14 Oeste 30 Oeste 0 1016.9 1.9 60
2019-04-10 21:00:00 17.3 19 Oeste 35 Sudoeste 0 1015.7 1 55
2019-04-10 20:00:00 18.4 22 Sudoeste 37 Sudoeste 0 1015.2 0.6 50
2019-04-10 19:00:00 19.8 14 Oeste 36 Oeste 0 1015 0.3 35
2019-04-10 18:00:00 21.9 18 Oeste 41 Oeste 0 1014.7 -0.3 26
2019-04-10 17:00:00 21.3 20 Oeste 50 Oeste 0 1014.6 -0.8 28
2019-04-10 16:00:00 21.1 23 Oeste 49 Oeste 0 1014.7 -1.1 29
2019-04-10 15:00:00 20.9 21 Oeste 45 Noroeste 0 1015 -1.6 30
2019-04-10 14:00:00 20.2 20 Oeste 47 Oeste 0 1015.4 -1.6 30
2019-04-10 13:00:00 19.4 21 Oeste 40 Oeste 0 1015.8 -1.2 30
2019-04-10 12:00:00 18.5 10 Oeste 28 Oeste 0 1016.6 -0.3 35
2019-04-10 11:00:00 16.5 9 Oeste 28 Oeste 0 1017 0.6 44
2019-04-10 10:00:00 15.7 5 Oeste 25 Nordeste 0 1017 0.7 43
2019-04-10 09:00:00 13 4 Oeste 14 Nordeste 0 1016.9 0.7 52
2019-04-10 08:00:00 11 9 Oeste 15 Oeste 0 1016.4 0 65
2019-04-10 07:00:00 11.3 5 Oeste 10 Oeste 0 1016.3 -0.2 67
2019-04-10 06:00:00 11.8 4 Oeste 9 Oeste 0 1016.2 -0.6 65
2019-04-10 05:00:00 12.3 6 Oeste 10 Oeste 0 1016.4 -0.7 64
2019-04-10 04:00:00 13.1 3 Oeste 17 Sudoeste 0 1016.5 -0.7 60
2019-04-10 03:00:00 13.6 9 Oeste 22 Sudoeste 0 1016.8 -0.9 60
2019-04-10 02:00:00 13.5 12 Sudoeste 27 Sudoeste 0 1017.1 -0.7 68
2019-04-10 01:00:00 13.6 13 Sudoeste 26 Sudoeste 0 1017.2 0.1 68
2019-04-10 00:00:00 13.8 14 Oeste 25 Oeste 0 1017.7 1 65
2019-04-09 23:00:00 14.4 8 Oeste 27 Oeste 0 1017.8 1.5 59
2019-04-09 22:00:00 15.1 12 Oeste 33 Oeste 0 1017.1 0.9 57
2019-04-09 21:00:00 16.4 16 Oeste 33 Sudoeste 0 1016.7 0.7 55
2019-04-09 20:00:00 18.1 20 Sudoeste 42 Sudoeste 0 1016.3 0.3 46
2019-04-09 19:00:00 19.9 16 Sudoeste 54 Sudoeste 0 1016.2 -0.2 41
2019-04-09 18:00:00 20.6 25 Oeste 52 Sudoeste 0 1016 -0.9 37
2019-04-09 17:00:00 21.1 22 Oeste 47 Oeste 0 1016 -1.5 31
2019-04-09 16:00:00 20.8 18 Oeste 45 Oeste 0 1016.4 -1.8 33
2019-04-09 15:00:00 19.8 19 Oeste 48 Sudoeste 0 1016.9 -1.3 41
2019-04-09 14:00:00 17.7 18 Sudoeste 35 Oeste 0 1017.5 -1 54
2019-04-09 13:00:00 17.1 14 Oeste 34 Oeste 0 1018.2 0 49
2019-04-09 12:00:00 17.9 15 Oeste 31 Oeste 0 1018.2 0.2 49
2019-04-09 11:00:00 17 15 Sudoeste 26 Oeste 0 1018.5 1.3 54
2019-04-09 10:00:00 15.5 10 Oeste 28 Oeste -- 1018.2 1.4 53
2019-04-09 09:00:00 13.2 13 Oeste 25 Sudoeste -- 1018 1.4 61
2019-04-09 08:00:00 12.7 13 Oeste 30 Oeste -- 1017.2 0.5 61
2019-04-09 07:00:00 13 8 Oeste 28 Sudoeste -- 1016.8 0 58
2019-04-09 06:00:00 13.2 13 Sudoeste 26 Oeste -- 1016.6 -0.4 58
2019-04-09 05:00:00 13.5 12 Oeste 25 Sudoeste -- 1016.7 -0.1 59
2019-04-09 04:00:00 13.5 9 Oeste 25 Sudoeste -- 1016.8 -0.3 60
2019-04-09 03:00:00 13.6 5 Norte 27 Sudoeste -- 1017 0.1 65
2019-04-09 02:00:00 13.8 14 Oeste 24 Sudoeste -- 1016.8 0.3 70
2019-04-09 01:00:00 14.2 12 Oeste 25 Oeste -- 1017.1 0.7 62
2019-04-09 00:00:00 13.6 5 Sudoeste 27 Sudoeste -- 1016.9 0.9 68
2019-04-08 23:00:00 14.4 14 Sudoeste 37 Oeste -- 1016.5 0.7 78
2019-04-08 22:00:00 14.9 15 Sudoeste 27 Oeste -- 1016.4 0.7 77
2019-04-08 21:00:00 14.9 14 Sudoeste 27 Oeste -- 1016 0.8 78
2019-04-08 20:00:00 15.3 20 Sudoeste 34 Oeste -- 1015.8 0.3 78
2019-04-08 19:00:00 16.7 16 Oeste 39 Oeste -- 1015.7 -0.2 68
2019-04-08 18:00:00 19.4 18 Oeste 42 Oeste -- 1015.2 -1.1 52
2019-04-08 17:00:00 18.5 18 Oeste 33 Oeste -- 1015.5 -1 56
2019-04-08 16:00:00 18.8 20 Oeste 43 Sudoeste -- 1015.9 -0.9 55
2019-04-08 15:00:00 18.5 21 Oeste 40 Oeste -- 1016.3 -0.5 60
2019-04-08 14:00:00 18.2 17 Oeste 28 Oeste -- 1016.5 -0.1 63
2019-04-08 13:00:00 17.6 11 Oeste 28 Sudoeste -- 1016.8 0.2 69
2019-04-08 12:00:00 16.9 10 Sudoeste 26 Sudoeste -- 1016.8 0 80
2019-04-08 11:00:00 17.6 18 Oeste 36 Sudoeste -- 1016.6 0.6 67
2019-04-08 10:00:00 15.7 14 Oeste 32 Oeste -- 1016.6 0.7 75
2019-04-08 09:00:00 14.3 12 Oeste 23 Oeste -- 1016.8 0.8 82
2019-04-08 08:00:00 14.3 16 Sudoeste 24 Sudoeste -- 1016 -0.3 82
2019-04-08 07:00:00 14.3 6 Oeste 18 Oeste -- 1015.9 -0.4 83
2019-04-08 06:00:00 14.3 9 Oeste 18 Oeste -- 1016 -0.7 84
2019-04-08 05:00:00 14.5 9 Oeste 21 Sudoeste -- 1016.3 -0.7 84
2019-04-08 04:00:00 14.4 15 Oeste 24 Oeste -- 1016.3 -0.8 84
2019-04-08 03:00:00 14.8 9 Oeste 20 Oeste -- 1016.7 -0.4 83
2019-04-08 02:00:00 14.8 11 Oeste 21 Sudoeste -- 1017 -0.1 81
2019-04-08 01:00:00 14.6 13 Oeste 23 Sudoeste -- 1017.1 0.4 82
2019-04-08 00:00:00 14.5 13 Sudoeste 23 Oeste -- 1017.1 0.9 82
2019-04-07 23:00:00 14.5 11 Oeste 31 Oeste -- 1017.1 1.2 84
2019-04-07 22:00:00 14.9 17 Oeste 32 Sudoeste -- 1016.7 0.9 85
2019-04-07 21:00:00 14.9 10 Oeste 25 Oeste -- 1016.2 0.4 85
2019-04-07 20:00:00 14.8 13 Oeste 24 Oeste -- 1015.9 0.1 85
2019-04-07 19:00:00 14.6 12 Sudoeste 21 Oeste -- 1015.8 0 83
2019-04-07 18:00:00 15.1 11 Oeste 27 Oeste -- 1015.8 0.2 80
2019-04-07 17:00:00 15.6 15 Oeste 42 Oeste -- 1015.8 -0.1 74
2019-04-07 16:00:00 16.8 17 Oeste 44 Oeste -- 1015.8 -0.1 57
2019-04-07 15:00:00 17.8 17 Oeste 40 Oeste -- 1015.6 0.3 56
2019-04-07 14:00:00 16.1 21 Oeste 40 Sudoeste -- 1015.9 1 66
2019-04-07 13:00:00 15.3 17 Oeste 45 Sudoeste -- 1015.9 1.7 64
2019-04-07 12:00:00 16.2 21 Oeste 39 Sudoeste -- 1015.3 1.5 55
2019-04-07 11:00:00 14.4 13 Sudoeste 32 Sudoeste -- 1014.9 1.7 66
2019-04-07 10:00:00 14.2 15 Sudoeste 30 Sudoeste -- 1014.2 1.3 66
2019-04-07 09:00:00 12.6 13 Sudoeste 24 Oeste -- 1013.8 1.1 71
2019-04-07 08:00:00 11.9 10 Sudoeste 27 Oeste -- 1013.2 0.6 73
2019-04-07 07:00:00 12 12 Oeste 28 Sudoeste -- 1012.9 0 74
2019-04-07 06:00:00 11.6 13 Oeste 26 Oeste -- 1012.7 -0.7 74
2019-04-07 05:00:00 11.6 9 Oeste 32 Sudoeste -- 1012.6 -0.5 78
2019-04-07 04:00:00 12 16 Sudoeste 29 Sudoeste -- 1012.9 0 80
2019-04-07 03:00:00 12.3 19 Sudoeste 32 Sudoeste -- 1013.4 0.9 75
2019-04-07 02:00:00 12.5 13 Sudoeste 34 Oeste -- 1013.1 1 70
2019-04-07 01:00:00 12.9 16 Oeste 36 Sudoeste -- 1012.9 1.6 69
2019-04-07 00:00:00 13.3 19 Sudoeste 36 Oeste -- 1012.5 2.2 66
2019-04-06 23:00:00 13.2 16 Oeste 45 Oeste -- 1012.1 2.6 64
2019-04-06 22:00:00 13.7 20 Oeste 42 Oeste -- 1011.3 2 61
2019-04-06 21:00:00 13.9 21 Oeste 49 Oeste -- 1010.3 1.3 59
2019-04-06 20:00:00 14.5 22 Oeste 48 Noroeste -- 1009.5 0.4 57
2019-04-06 19:00:00 15 22 Oeste 49 Oeste -- 1009.3 -0.2 57
2019-04-06 18:00:00 15.6 25 Oeste 49 Oeste -- 1009 -1 59
2019-04-06 17:00:00 14.6 18 Oeste 50 Oeste -- 1009.1 -1 71
2019-04-06 16:00:00 14 15 Oeste 50 Oeste -- 1009.5 -0.2 74
2019-04-06 15:00:00 14.5 23 Oeste 42 Sudoeste -- 1010 0 61
2019-04-06 14:00:00 13.5 17 Oeste 44 Oeste -- 1010.1 0.2 63
2019-04-06 13:00:00 16.2 17 Oeste 47 Oeste -- 1009.7 -0.2 51
2019-04-06 12:00:00 14.4 23 Sudoeste 38 Sudoeste -- 1010 0.2 62
2019-04-06 11:00:00 12 14 Sudoeste 32 Oeste -- 1009.9 0.5 74
2019-04-06 10:00:00 11.2 10 Sudoeste 29 Sudoeste -- 1009.9 0.8 76
2019-04-06 09:00:00 10.6 17 Sudoeste 27 Sudoeste -- 1009.8 1.2 75
2019-04-06 08:00:00 10 14 Oeste 31 Oeste -- 1009.4 1 72
2019-04-06 07:00:00 10.7 16 Oeste 35 Oeste -- 1009.1 0.9 70
2019-04-06 06:00:00 10.4 14 Oeste 38 Oeste -- 1008.6 0.3 69
2019-04-06 05:00:00 10.9 21 Sudoeste 40 Sudoeste -- 1008.4 -0.1 68
2019-04-06 04:00:00 11.8 18 Sudoeste 32 Sudoeste -- 1008.2 -0.3 62
2019-04-06 03:00:00 12 12 Oeste 30 Oeste -- 1008.3 0.4 54
2019-04-06 02:00:00 12.1 13 Oeste 32 Oeste -- 1008.5 1.3 54
2019-04-06 01:00:00 12.5 14 Oeste 31 Oeste -- 1008.5 2 52
2019-04-06 00:00:00 12.8 14 Oeste 35 Noroeste -- 1007.9 2 52
2019-04-05 23:00:00 12.7 10 Oeste 36 Sudoeste -- 1007.2 1.9 53
2019-04-05 22:00:00 13 16 Oeste 32 Oeste -- 1006.5 2.2 56
2019-04-05 21:00:00 13.6 13 Oeste 41 Oeste -- 1005.9 1.9 50
2019-04-05 20:00:00 15.2 16 Oeste 51 Sudoeste -- 1005.3 1.9 42
2019-04-05 19:00:00 16.5 22 Oeste 50 Oeste -- 1004.3 1.1 33
2019-04-05 18:00:00 16.9 27 Oeste 58 Oeste -- 1004 0.5 33
2019-04-05 17:00:00 17 23 Oeste 49 Sudoeste -- 1003.4 -0.2 33
2019-04-05 16:00:00 16.5 22 Oeste 60 Noroeste -- 1003.2 -0.3 37
2019-04-05 15:00:00 16 19 Oeste 51 Noroeste -- 1003.5 0 43
2019-04-05 14:00:00 13.5 15 Oeste 33 Oeste -- 1003.6 -0.1 75
2019-04-05 13:00:00 12.3 14 Oeste 40 Oeste -- 1003.5 0.1 83
2019-04-05 12:00:00 12.5 12 Sudoeste 21 Sudoeste -- 1003.5 0.3 82
2019-04-05 11:00:00 12.1 12 Oeste 30 Sudoeste -- 1003.7 0.1 81
2019-04-05 10:00:00 11.6 11 Oeste 41 Sudoeste -- 1003.4 -0.4 84
2019-04-05 09:00:00 12 8 Oeste 19 Oeste 0 1003.2 -1 84
2019-04-05 08:00:00 11.9 10 Sudoeste 22 Oeste 0 1003.6 -0.8 81
2019-04-05 07:00:00 12.1 9 Oeste 19 Oeste 0 1003.8 -0.8 73
2019-04-05 06:00:00 13.1 14 Sudoeste 26 Sudoeste 0 1004.2 -1 64
2019-04-05 05:00:00 12.9 12 Sudoeste 26 Sudoeste 0 1004.4 -1.1 60
2019-04-05 04:00:00 13.7 12 Oeste 34 Oeste 0 1004.6 -1.3 54
2019-04-05 03:00:00 13.9 17 Oeste 41 Oeste 0 1005.2 -0.5 52
2019-04-05 02:00:00 13.3 15 Oeste 37 Oeste 0 1005.5 -0.1 53
2019-04-05 01:00:00 13.1 14 Oeste 30 Oeste 0 1005.9 0.9 50
2019-04-05 00:00:00 12.9 14 Oeste 31 Oeste 0 1005.7 1.5 46
2019-04-04 23:00:00 12.9 18 Oeste 36 Oeste 0 1005.6 1.7 51
2019-04-04 22:00:00 13.5 14 Oeste 42 Sudoeste 0 1005 1.6 45
2019-04-04 21:00:00 14.8 21 Oeste 49 Oeste 0 1004.2 0.8 44
2019-04-04 20:00:00 16.9 24 Oeste 46 Oeste 0 1003.9 0.5 41
2019-04-04 19:00:00 18.8 26 Oeste 51 Sudoeste 0 1003.4 0 41
2019-04-04 18:00:00 19.7 20 Sudoeste 44 Sudoeste 0 1003.4 -0.5 42
2019-04-04 17:00:00 20.2 29 Sudoeste 52 Sudoeste 0 1003.4 -0.7 30
2019-04-04 16:00:00 21.4 24 Sudoeste 45 Oeste 0 1003.4 -1.1 26
2019-04-04 15:00:00 21.3 24 Oeste 42 Oeste 0 1003.9 -0.8 25
2019-04-04 14:00:00 20.8 19 Sudoeste 36 Sudoeste 0 1004.1 -0.3 27
2019-04-04 13:00:00 19.7 20 Sudoeste 41 Sudoeste 0 1004.5 0.2 30
2019-04-04 12:00:00 18.5 23 Sudoeste 38 Oeste 0 1004.7 0.6 32
2019-04-04 11:00:00 17.6 12 Oeste 20 Oeste 0 1004.4 1.3 30
2019-04-04 10:00:00 14.4 3 Sur 7 Sudoeste 0 1004.3 1.7 51
2019-04-04 09:00:00 11.8 3 Nordeste 8 Nordeste 0 1004.1 1.8 56
2019-04-04 08:00:00 11.2 4 Oeste 13 Oeste 0 1003.1 1.1 57
2019-04-04 07:00:00 12 3 Oeste 11 Oeste 0 1002.6 0.7 56
2019-04-04 06:00:00 12.4 4 Oeste 9 Sudoeste 0 1002.3 0.1 56
2019-04-04 05:00:00 13.1 4 Oeste 25 Oeste 0 1002 -0.6 52
2019-04-04 04:00:00 13 11 Oeste 21 Oeste 0 1001.9 -1.2 54
2019-04-04 03:00:00 13.8 11 Oeste 22 Sudoeste 0 1002.2 -0.8 53
2019-04-04 02:00:00 14.4 11 Oeste 23 Oeste 0 1002.6 -0.5 51
2019-04-04 01:00:00 15.5 9 Sudoeste 23 Sudoeste 0 1003.1 -0.1 46
2019-04-04 00:00:00 16.2 9 Sudoeste 17 Sudoeste 0 1003 0.4 47
2019-04-03 23:00:00 16.6 9 Sudoeste 27 Noroeste 0 1003.1 0.5 37
2019-04-03 22:00:00 17.7 9 Oeste 31 Oeste 0 1003.2 0.6 38
2019-04-03 21:00:00 19.6 19 Oeste 36 Oeste 0 1002.6 -0.3 31
2019-04-03 20:00:00 22.9 17 Oeste 35 Oeste 0 1002.6 -1 23
2019-04-03 19:00:00 24.9 17 Oeste 36 Oeste 0 1002.6 -2.1 24
2019-04-03 18:00:00 25.9 14 Oeste 34 Oeste 0 1002.9 -3.3 22
2019-04-03 17:00:00 25.9 11 Oeste 32 Sudoeste 0 1003.6 -3.5 22
2019-04-03 16:00:00 22.2 6 Nordeste 15 Nordeste 0 1004.7 -3.3 48
2019-04-03 15:00:00 22.6 8 Sudoeste 15 Sur 0 1006.2 -2.2 55
2019-04-03 14:00:00 21.3 5 Sudoeste 13 Sudoeste 0 1007.1 -0.9 54
2019-04-03 13:00:00 20.3 5 Sudoeste 13 Oeste 0 1008 -0.1 51
2019-04-03 12:00:00 19.1 6 Sudoeste 13 Sudoeste 0 1008.4 -0.1 56
2019-04-03 11:00:00 17.8 4 Sudoeste 8 Sudoeste 0 1008 -0.9 62
2019-04-03 10:00:00 15.5 0 Calma 4 Sur 0 1008.1 -1.2 72
2019-04-03 09:00:00 12.5 3 Noroeste 5 Noroeste 0 1008.5 -1.5 78
2019-04-03 08:00:00 11.9 0 Calma 4 Oeste 0 1008.9 -2 79
2019-04-03 07:00:00 11.9 2 Nordeste 5 Oeste 0 1009.3 -2.3 79
2019-04-03 06:00:00 12 0 Calma 3 Oeste 0 1010 -2.1 79
2019-04-03 05:00:00 12.4 0 Calma 4 Norte 0 1010.9 -1.9 78
2019-04-03 04:00:00 12.8 2 Oeste 5 Noroeste 0 1011.6 -1.6 77
2019-04-03 03:00:00 13 0 Calma 6 Noroeste 0 1012.1 -1.6 77
2019-04-03 02:00:00 13.4 2 Norte 6 Oeste 0 1012.8 -0.9 78
2019-04-03 01:00:00 14.1 3 Norte 5 Nordeste 0 1013.2 0 76
2019-04-03 00:00:00 14.8 0 Calma 12 Sudoeste 0 1013.7 0.4 75
2019-04-02 23:00:00 15.4 4 Sudoeste 11 Oeste 0.2 1013.7 0.1 75
2019-04-02 22:00:00 16 3 Sudoeste 10 Oeste 0 1013.2 -0.4 72
2019-04-02 21:00:00 16.5 5 Sudoeste 9 Sudoeste 0 1013.3 -0.7 70
2019-04-02 20:00:00 17.9 3 Sudoeste 7 Sudoeste 0 1013.6 -0.8 63
2019-04-02 19:00:00 17.9 3 Sudoeste 8 Oeste 0 1013.6 -1 65
2019-04-02 18:00:00 18.9 5 Sudoeste 11 Sudoeste 0 1014 -1 61
2019-04-02 17:00:00 20 5 Sudoeste 12 Sur 0 1014.4 -1.4 58
2019-04-02 16:00:00 20.1 6 Sudoeste 14 Sur 0 1014.6 -1.3 56
2019-04-02 15:00:00 21.2 6 Sur 15 Sur 0 1015 -1.3 56
2019-04-02 14:00:00 20.1 6 Sudeste 14 Sur 0 1015.8 -0.2 55
2019-04-02 13:00:00 20.5 6 Sur 12 Sur 0 1015.9 -0.2 51
2019-04-02 12:00:00 19.4 4 Sudeste 9 Sudeste 0 1016.3 0.5 47
2019-04-02 11:00:00 17.2 3 Nordeste 9 Oeste 0 1016 0.5 58
2019-04-02 10:00:00 14.4 2 Sudoeste 6 Sur 0 1016.1 0.7 74
2019-04-02 09:00:00 12.5 2 Oeste 7 Norte 0 1015.8 0.6 73
2019-04-02 08:00:00 12 4 Noroeste 6 Noroeste 0 1015.5 -0.1 77
2019-04-02 07:00:00 12 3 Oeste 8 Norte 0 1015.4 -0.3 76
2019-04-02 06:00:00 11.6 4 Norte 8 Norte 0 1015.2 -0.9 81
2019-04-02 05:00:00 11.8 4 Noroeste 6 Noroeste 0 1015.6 -0.7 82
2019-04-02 04:00:00 11.5 2 Oeste 6 Nordeste 0 1015.7 -0.5 82
2019-04-02 03:00:00 12 3 Noroeste 6 Noroeste 0 1016.1 -0.2 82
2019-04-02 02:00:00 12.4 2 Norte 4 Norte 0 1016.3 0.4 82
2019-04-02 01:00:00 13.1 3 Este 4 Noroeste 0 1016.2 0.9 81
2019-04-02 00:00:00 13.7 2 Noroeste 6 Nordeste 0 1016.3 1.8 81
2019-04-01 23:00:00 14.3 3 Sudeste 8 Sudeste 0 1015.9 1.9 79
2019-04-01 22:00:00 15 2 Noroeste 9 Nordeste 0 1015.3 1.6 77
2019-04-01 21:00:00 15.7 6 Nordeste 13 Este 0 1014.5 0.9 75
2019-04-01 20:00:00 16.9 6 Nordeste 18 Este 0 1014 0.2 71
2019-04-01 19:00:00 17.6 11 Nordeste 19 Este 0 1013.7 -0.2 72
2019-04-01 18:00:00 18.4 10 Este 17 Nordeste 0 1013.6 -0.5 69
2019-04-01 17:00:00 18.6 6 Sudeste 16 Sudeste 0 1013.8 -0.9 67
2019-04-01 16:00:00 18.3 9 Sur 17 Sur 0 1013.9 -0.8 67
2019-04-01 15:00:00 17.6 8 Sudoeste 14 Sudoeste 0 1014.1 -0.6 77
2019-04-01 14:00:00 14.8 6 Oeste 17 Noroeste 0 1014.7 0.5 82
2019-04-01 13:00:00 15.1 4 Sudoeste 20 Oeste 0 1014.7 1.2 80
2019-04-01 12:00:00 15.8 4 Oeste 13 Oeste 0 1014.7 1.9 75
2019-04-01 11:00:00 15.8 4 Sudoeste 18 Sudoeste 0 1014.2 1.8 77
2019-04-01 10:00:00 15.3 6 Sudoeste 13 Sudoeste 0 1013.5 1.5 75
2019-04-01 09:00:00 14.5 5 Oeste 17 Noroeste 0 1012.8 1.1 74
2019-04-01 08:00:00 13.5 9 Oeste 31 Oeste 0 1012.4 0.7 74
2019-04-01 07:00:00 14 12 Oeste 24 Oeste 0 1012 -0.3 77
2019-04-01 06:00:00 14 2 Noroeste 6 Noroeste 0 1011.7 -0.7 79
2019-04-01 05:00:00 14 2 Norte 9 Nordeste 0 1011.7 -0.7 79
2019-04-01 04:00:00 13.9 0 Calma 8 Nordeste 0 1012.3 0.2 78
2019-04-01 03:00:00 14.2 4 Nordeste 13 Este 0 1012.4 0.5 76
2019-04-01 02:00:00 14.2 6 Oeste 14 Oeste 0 1012.4 0.6 78
2019-04-01 01:00:00 14.7 7 Oeste 11 Oeste 0 1012.1 0.6 81
2019-04-01 00:00:00 14.9 3 Noroeste 9 Nordeste 0 1011.9 1.1 79
2019-03-31 23:00:00 15.2 3 Oeste 9 Oeste 0 1011.8 1.5 77
2019-03-31 22:00:00 15.9 6 Sudoeste 9 Sudoeste 0 1011.5 1.3 77
2019-03-31 21:00:00 16.1 5 Sudoeste 13 Sudoeste 0 1010.8 0.6 74
2019-03-31 20:00:00 16.8 7 Sudoeste 13 Sudoeste 0 1010.3 0.4 71
2019-03-31 19:00:00 17.4 6 Sudoeste 12 Sudoeste 0 1010.2 0.1 68
2019-03-31 18:00:00 19 7 Sudoeste 13 Sur 0 1010.2 -0.5 65
2019-03-31 17:00:00 20.7 6 Sur 13 Sudoeste 0 1009.9 -1.4 55
2019-03-31 16:00:00 20.5 7 Sudoeste 15 Sudoeste 0 1010.1 -1.7 58
2019-03-31 15:00:00 19 9 Sudoeste 18 Sudoeste 0 1010.7 -1.5 61
2019-03-31 14:00:00 18.9 7 Sudoeste 13 Sur 0 1011.3 -0.7 60
2019-03-31 13:00:00 18 6 Sur 12 Sudeste 0 1011.8 0.3 68
2019-03-31 12:00:00 15.7 4 Sudeste 8 Sudoeste 0 1012.2 0.6 80
2019-03-31 11:00:00 14.9 5 Sudoeste 8 Sudoeste 0 1012 0.3 84
2019-03-31 10:00:00 13.8 3 Este 14 Este 0 1011.5 -0.2 86
2019-03-31 09:00:00 13.3 4 Nordeste 16 Nordeste 0 1011.6 -0.4 86
2019-03-31 08:00:00 13 6 Nordeste 26 Este 0 1011.7 -1.1 86
2019-03-31 07:00:00 13.3 6 Nordeste 13 Nordeste 0 1011.7 -1.8 86
2019-03-31 06:00:00 13.4 6 Nordeste 22 Este 0 1012 -2 85
2019-03-31 05:00:00 13.2 14 Este 34 Este 0 1012.8 -1.8 85
2019-03-31 03:00:00 13.5 7 Nordeste 30 Nordeste 0 1014 -2.2 84
2019-03-31 01:00:00 13.7 9 Nordeste 24 Nordeste 0 1014.6 -1.4 83
2019-03-31 00:00:00 14 12 Nordeste -- -- -- 1015.4 0.4 81
2019-03-30 23:00:00 14.7 7 Nordeste -- -- 0 1016.2 1 75
2019-03-30 22:00:00 15.1 23 Este -- -- 0 1016 0.6 75
2019-03-30 21:00:00 14.9 9 Nordeste -- -- 0 1015 -1.1 75
2019-03-30 20:00:00 14.9 13 Este 29 Este 0 1015.2 -0.7 75
2019-03-30 19:00:00 15.1 15 Este -- -- 0 1015.4 -0.8 75
2019-03-30 18:00:00 15.1 -- -- -- -- 0 1016.1 -0.2 74
2019-03-30 17:00:00 15.1 -- -- -- -- 0 1015.9 -1 73
2019-03-30 16:00:00 15.1 -- -- -- -- 0 1016.2 -1.6 72
2019-03-30 15:00:00 15.4 -- -- -- -- 0 1016.3 -1.6 70
2019-03-30 14:00:00 15.4 28 Este 44 Este 0 1016.9 -2 69
2019-03-30 13:00:00 15.7 29 Este 47 Este 0 1017.8 -1 67
2019-03-30 12:00:00 16.3 30 Este 48 Este 0 1017.9 -0.6 63
2019-03-30 11:00:00 16.3 27 Este -- -- 0 1018.9 0.3 64
2019-03-30 10:00:00 15.3 -- -- -- -- 0 1018.8 -0.5 69
2019-03-30 09:00:00 15 -- -- -- -- 0 1018.5 -0.8 65
2019-03-30 08:00:00 14.3 14 Nordeste -- -- 0 1018.6 -1 66
2019-03-30 07:00:00 14.5 -- -- -- -- 0 1019.3 -1.1 69
2019-03-30 06:00:00 14.7 -- -- -- -- 0 1019.3 -1.5 69
2019-03-30 05:00:00 14.8 28 Este 44 Este 0 1019.6 -1.5 69
2019-03-30 04:00:00 14.8 25 Este 46 Este 0 1020.4 -0.9 68
2019-03-30 03:00:00 14.9 28 Este -- -- 0 1020.8 -1.6 67
2019-03-30 02:00:00 15 -- -- -- -- 0 1021.1 -0.9 69
2019-03-30 01:00:00 15 -- -- -- -- 0 1021.3 -0.8 68
2019-03-30 00:00:00 15.1 -- -- -- -- 0 1022.4 0.9 67
2019-03-29 23:00:00 15.1 -- -- -- -- 0 1022 0.9 69
2019-03-29 22:00:00 15.1 -- -- -- -- 0 1022.1 1.3 68
2019-03-29 21:00:00 15.1 -- -- -- -- 0 1021.5 0.6 68
2019-03-29 20:00:00 15.1 -- -- -- -- 0 1021.1 0.2 69
2019-03-29 19:00:00 15.7 -- -- -- -- 0 1020.8 -0.2 68
2019-03-29 18:00:00 16 -- -- -- -- 0 1020.9 -0.9 65
2019-03-29 17:00:00 16.5 -- -- -- -- 0 1020.9 -1.5 63
2019-03-29 16:00:00 16.9 -- -- -- -- 0 1021 -1.6 61
2019-03-29 15:00:00 17.1 -- -- -- -- 0 1021.8 -1 59
2019-03-29 14:00:00 16.4 -- -- -- -- 0 1022.4 -0.7 60
2019-03-29 13:00:00 16.7 -- -- -- -- 0 1022.6 -0.6 60
2019-03-29 12:00:00 16.5 -- -- -- -- 0 1022.8 -0.1 62
2019-03-29 11:00:00 15.6 -- -- -- -- 0 1023.1 0.4 64
2019-03-29 10:00:00 15.1 -- -- -- -- 0 1023.2 0.8 67
2019-03-29 09:00:00 15 -- -- -- -- 0 1022.9 0.6 66
2019-03-29 08:00:00 14.7 -- -- -- -- 0 1022.7 0.5 65
2019-03-29 07:00:00 14.6 -- -- -- -- 0 1022.4 -0.1 65
2019-03-29 06:00:00 14.7 -- -- -- -- 0 1022.3 -0.5 65
2019-03-29 05:00:00 14.7 -- -- -- -- 0 1022.2 -0.9 65
2019-03-29 04:00:00 14.7 -- -- -- -- 0 1022.5 -0.6 66
2019-03-29 03:00:00 14.7 -- -- -- -- 0 1022.8 -0.6 65
2019-03-29 02:00:00 13.4 10 Nordeste 28 Nordeste 0 1023.1 -0.4 58
2019-03-29 01:00:00 13.7 13 Nordeste 31 Nordeste 0 1023.1 -0.6 57
2019-03-29 00:00:00 14 13 Nordeste 33 Este 0 1023.4 -0.1 58
2019-03-28 23:00:00 14.1 13 Nordeste 29 Nordeste 0 1023.5 0.9 57
2019-03-28 22:00:00 14 12 Nordeste 28 Nordeste 0 1023.7 1.5 58
2019-03-28 21:00:00 14.4 13 Nordeste -- -- 0 1023.5 1.2 62
2019-03-28 20:00:00 15.2 -- -- -- -- 0 1022.6 0.4 66
2019-03-28 19:00:00 15.5 -- -- -- -- 0 1022.2 -0.4 64
2019-03-28 18:00:00 16.2 -- -- -- -- 0 1022.3 -0.8 63
2019-03-28 17:00:00 16.5 -- -- -- -- 0 1022.2 -1.4 58
2019-03-28 16:00:00 16.8 -- -- -- -- 0 1022.6 -1.4 57
2019-03-28 15:00:00 17.1 -- -- -- -- 0 1023.1 -1.4 58
2019-03-28 14:00:00 16.9 -- -- -- -- 0 1023.6 -1.3 55
2019-03-28 13:00:00 16.8 -- -- -- -- 0 1024 -0.7 53
2019-03-28 12:00:00 16.8 -- -- -- -- 0 1024.5 -0.1 50
2019-03-28 11:00:00 16.4 -- -- -- -- 0 1024.9 0.8 55
2019-03-28 10:00:00 16.1 -- -- -- -- 0 1024.7 1.1 56
2019-03-28 09:00:00 15 -- -- -- -- 0 1024.6 1.5 59
2019-03-28 08:00:00 14.4 -- -- -- -- 0 1024.1 1.2 59
2019-03-28 07:00:00 13.8 12 Nordeste -- -- 0 1023.6 0.6 59
2019-03-28 06:00:00 14.5 -- -- -- -- 0 1023.1 -0.3 57
2019-03-28 05:00:00 14.5 -- -- -- -- 0 1022.9 -1 57
2019-03-28 04:00:00 14.6 29 Este 47 Este 0 1023 -1.2 59
2019-03-28 03:00:00 14.8 27 Este 45 Este 0 1023.4 -0.6 60
2019-03-28 02:00:00 14.7 26 Este 50 Este 0 1023.9 0 57
2019-03-28 01:00:00 15 27 Este -- -- 0 1024.2 0.6 59
2019-03-28 00:00:00 15.2 -- -- -- -- 0 1024 1 61
2019-03-27 23:00:00 15.1 -- -- -- -- 0 1023.9 1.7 64
2019-03-27 22:00:00 15.2 -- -- -- -- 0 1023.6 1.8 63
2019-03-27 21:00:00 15.2 -- -- -- -- 0 1023 2.1 60
2019-03-27 20:00:00 15.2 -- -- -- -- 0 1022.2 1.6 60
2019-03-27 19:00:00 15.4 -- -- -- -- 0 1021.8 1 57
2019-03-27 18:00:00 15.9 -- -- -- -- 0 1020.9 0 54
2019-03-27 17:00:00 16.4 -- -- -- -- 0 1020.6 -0.4 53
2019-03-27 16:00:00 16.6 -- -- -- -- 0 1020.8 -0.3 50
2019-03-27 15:00:00 17.2 27 Este -- -- 0 1020.9 -0.2 47
2019-03-27 14:00:00 17.1 -- -- -- -- 0 1021 0.2 43
2019-03-27 13:00:00 16.9 -- -- -- -- 0 1021.1 1.1 40
2019-03-27 12:00:00 16.7 -- -- -- -- 0 1021.1 1.6 46
2019-03-27 11:00:00 16.1 -- -- -- -- 0 1020.8 1.5 49
2019-03-27 10:00:00 15.5 -- -- -- -- 0 1020 1.1 53
2019-03-27 09:00:00 14.9 -- -- -- -- 0 1019.5 0.9 56
2019-03-27 08:00:00 14.7 -- -- -- -- 0 1019.3 1.1 59
2019-03-27 07:00:00 14.6 -- -- -- -- 0 1018.9 0.4 57
2019-03-27 06:00:00 14.7 -- -- -- -- 0 1018.6 -0.1 59
2019-03-27 05:00:00 14.9 -- -- -- -- 0 1018.2 0 59
2019-03-27 04:00:00 14.9 -- -- -- -- 0 1018.5 0.1 57
2019-03-27 03:00:00 15 -- -- -- -- 0 1018.7 0.6 57
2019-03-27 02:00:00 15.3 -- -- -- -- 0 1018.2 0.4 56
2019-03-27 01:00:00 15.7 -- -- -- -- 0 1018.4 1.1 57
2019-03-27 00:00:00 15.9 -- -- -- -- 0 1018.1 1.9 52